sensor_id;sensor_type;location;lat;lon;timestamp;temperature;humidity
67275;DHT22;55463;52.324;5.122;2024-03-22T00:00:08;10.94;98.88
67275;DHT22;55463;52.324;5.122;2024-03-22T00:02:37;11.00;98.75
67275;DHT22;55463;52.324;5.122;2024-03-22T00:05:03;11.03;98.70
67275;DHT22;55463;52.324;5.122;2024-03-22T00:07:29;11.04;98.74
67275;DHT22;55463;52.324;5.122;2024-03-22T00:09:54;11.01;98.60
67275;DHT22;55463;52.324;5.122;2024-03-22T00:12:19;11.01;98.72
67275;DHT22;55463;52.324;5.122;2024-03-22T00:14:45;11.04;98.94
67275;DHT22;55463;52.324;5.122;2024-03-22T00:17:10;11.03;98.88
67275;DHT22;55463;52.324;5.122;2024-03-22T00:19:35;11.07;98.71
67275;DHT22;55463;52.324;5.122;2024-03-22T00:22:01;11.08;98.84
67275;DHT22;55463;52.324;5.122;2024-03-22T00:33:35;11.11;98.62
67275;DHT22;55463;52.324;5.122;2024-03-22T00:38:26;11.08;98.84
67275;DHT22;55463;52.324;5.122;2024-03-22T00:40:52;11.06;98.64
67275;DHT22;55463;52.324;5.122;2024-03-22T00:43:19;11.07;98.78
67275;DHT22;55463;52.324;5.122;2024-03-22T00:45:44;11.08;98.66
67275;DHT22;55463;52.324;5.122;2024-03-22T00:48:10;11.10;98.80
67275;DHT22;55463;52.324;5.122;2024-03-22T00:50:35;11.11;98.57
67275;DHT22;55463;52.324;5.122;2024-03-22T00:53:01;11.06;98.63
67275;DHT22;55463;52.324;5.122;2024-03-22T00:55:28;11.06;98.53
67275;DHT22;55463;52.324;5.122;2024-03-22T00:57:53;11.06;98.66
67275;DHT22;55463;52.324;5.122;2024-03-22T01:00:19;11.06;98.72
67275;DHT22;55463;52.324;5.122;2024-03-22T01:02:45;11.07;98.72
67275;DHT22;55463;52.324;5.122;2024-03-22T01:05:10;11.04;98.65
67275;DHT22;55463;52.324;5.122;2024-03-22T01:07:36;11.04;98.51
67275;DHT22;55463;52.324;5.122;2024-03-22T01:10:03;11.04;98.48
67275;DHT22;55463;52.324;5.122;2024-03-22T01:12:28;11.01;98.60
67275;DHT22;55463;52.324;5.122;2024-03-22T01:14:55;11.00;98.51
67275;DHT22;55463;52.324;5.122;2024-03-22T01:17:20;11.01;98.64
67275;DHT22;55463;52.324;5.122;2024-03-22T01:19:45;11.00;98.53
67275;DHT22;55463;52.324;5.122;2024-03-22T01:22:11;10.96;98.51
67275;DHT22;55463;52.324;5.122;2024-03-22T01:24:36;10.94;98.58
67275;DHT22;55463;52.324;5.122;2024-03-22T01:27:01;10.94;98.57
67275;DHT22;55463;52.324;5.122;2024-03-22T01:29:27;10.91;98.68
67275;DHT22;55463;52.324;5.122;2024-03-22T01:31:56;10.90;98.50
67275;DHT22;55463;52.324;5.122;2024-03-22T01:34:21;10.89;98.69
67275;DHT22;55463;52.324;5.122;2024-03-22T01:36:46;10.89;98.58
67275;DHT22;55463;52.324;5.122;2024-03-22T01:39:12;10.87;98.48
67275;DHT22;55463;52.324;5.122;2024-03-22T01:41:39;10.89;98.53
67275;DHT22;55463;52.324;5.122;2024-03-22T01:44:05;10.87;98.69
67275;DHT22;55463;52.324;5.122;2024-03-22T01:46:30;10.84;98.78
67275;DHT22;55463;52.324;5.122;2024-03-22T01:48:55;10.84;98.76
67275;DHT22;55463;52.324;5.122;2024-03-22T01:51:21;10.80;98.75
67275;DHT22;55463;52.324;5.122;2024-03-22T01:53:47;10.80;98.78
67275;DHT22;55463;52.324;5.122;2024-03-22T01:56:12;10.81;98.62
67275;DHT22;55463;52.324;5.122;2024-03-22T01:58:39;10.77;98.53
67275;DHT22;55463;52.324;5.122;2024-03-22T02:01:04;10.77;98.66
67275;DHT22;55463;52.324;5.122;2024-03-22T02:03:30;10.79;98.86
67275;DHT22;55463;52.324;5.122;2024-03-22T02:05:55;10.74;98.72
67275;DHT22;55463;52.324;5.122;2024-03-22T02:08:21;10.77;98.63
67275;DHT22;55463;52.324;5.122;2024-03-22T02:10:46;10.74;98.83
67275;DHT22;55463;52.324;5.122;2024-03-22T02:13:12;10.67;98.86
67275;DHT22;55463;52.324;5.122;2024-03-22T02:15:37;10.69;98.70
67275;DHT22;55463;52.324;5.122;2024-03-22T02:18:03;10.66;98.61
67275;DHT22;55463;52.324;5.122;2024-03-22T02:20:29;10.66;98.51
67275;DHT22;55463;52.324;5.122;2024-03-22T02:22:54;10.67;98.41
67275;DHT22;55463;52.324;5.122;2024-03-22T02:25:20;10.63;98.51
67275;DHT22;55463;52.324;5.122;2024-03-22T02:27:45;10.60;98.77
67275;DHT22;55463;52.324;5.122;2024-03-22T02:30:10;10.60;98.55
67275;DHT22;55463;52.324;5.122;2024-03-22T02:32:36;10.59;98.58
67275;DHT22;55463;52.324;5.122;2024-03-22T02:35:02;10.55;98.67
67275;DHT22;55463;52.324;5.122;2024-03-22T02:37:28;10.55;98.69
67275;DHT22;55463;52.324;5.122;2024-03-22T02:39:53;10.52;98.76
67275;DHT22;55463;52.324;5.122;2024-03-22T02:42:19;10.52;98.85
67275;DHT22;55463;52.324;5.122;2024-03-22T02:44:44;10.50;98.78
67275;DHT22;55463;52.324;5.122;2024-03-22T02:47:10;10.49;98.96
67275;DHT22;55463;52.324;5.122;2024-03-22T02:49:35;10.50;98.84
67275;DHT22;55463;52.324;5.122;2024-03-22T02:52:01;10.49;98.74
67275;DHT22;55463;52.324;5.122;2024-03-22T02:54:27;10.49;98.87
67275;DHT22;55463;52.324;5.122;2024-03-22T02:56:52;10.48;98.73
67275;DHT22;55463;52.324;5.122;2024-03-22T02:59:17;10.45;98.96
67275;DHT22;55463;52.324;5.122;2024-03-22T03:01:43;10.44;99.05
67275;DHT22;55463;52.324;5.122;2024-03-22T03:04:08;10.44;99.04
67275;DHT22;55463;52.324;5.122;2024-03-22T03:06:34;10.48;99.11
67275;DHT22;55463;52.324;5.122;2024-03-22T03:08:59;10.45;98.98
67275;DHT22;55463;52.324;5.122;2024-03-22T03:11:24;10.44;98.96
67275;DHT22;55463;52.324;5.122;2024-03-22T03:13:50;10.42;98.98
67275;DHT22;55463;52.324;5.122;2024-03-22T03:16:15;10.41;99.14
67275;DHT22;55463;52.324;5.122;2024-03-22T03:18:40;10.44;99.20
67275;DHT22;55463;52.324;5.122;2024-03-22T03:21:06;10.39;99.22
67275;DHT22;55463;52.324;5.122;2024-03-22T03:23:32;10.42;99.01
67275;DHT22;55463;52.324;5.122;2024-03-22T03:25:57;10.41;99.03
67275;DHT22;55463;52.324;5.122;2024-03-22T03:28:22;10.39;98.96
67275;DHT22;55463;52.324;5.122;2024-03-22T03:30:48;10.41;99.16
67275;DHT22;55463;52.324;5.122;2024-03-22T03:33:13;10.38;99.06
67275;DHT22;55463;52.324;5.122;2024-03-22T03:35:38;10.38;99.19
67275;DHT22;55463;52.324;5.122;2024-03-22T03:38:04;10.35;99.21
67275;DHT22;55463;52.324;5.122;2024-03-22T03:40:29;10.36;99.12
67275;DHT22;55463;52.324;5.122;2024-03-22T03:42:54;10.35;99.22
67275;DHT22;55463;52.324;5.122;2024-03-22T03:45:20;10.34;99.30
67275;DHT22;55463;52.324;5.122;2024-03-22T03:47:45;10.34;99.24
67275;DHT22;55463;52.324;5.122;2024-03-22T03:50:11;10.36;99.08
67275;DHT22;55463;52.324;5.122;2024-03-22T03:52:37;10.34;99.17
67275;DHT22;55463;52.324;5.122;2024-03-22T03:55:03;10.38;99.07
67275;DHT22;55463;52.324;5.122;2024-03-22T03:57:29;10.34;99.07
67275;DHT22;55463;52.324;5.122;2024-03-22T03:59:54;10.38;99.00
67275;DHT22;55463;52.324;5.122;2024-03-22T04:02:19;10.35;99.09
67275;DHT22;55463;52.324;5.122;2024-03-22T04:04:45;10.35;99.02
67275;DHT22;55463;52.324;5.122;2024-03-22T04:07:10;10.34;99.17
67275;DHT22;55463;52.324;5.122;2024-03-22T04:09:35;10.29;99.18
67275;DHT22;55463;52.324;5.122;2024-03-22T04:12:01;10.29;99.06
67275;DHT22;55463;52.324;5.122;2024-03-22T04:14:26;10.28;99.02
67275;DHT22;55463;52.324;5.122;2024-03-22T04:16:52;10.28;99.00
67275;DHT22;55463;52.324;5.122;2024-03-22T04:19:20;10.28;99.00
67275;DHT22;55463;52.324;5.122;2024-03-22T04:21:45;10.27;98.96
67275;DHT22;55463;52.324;5.122;2024-03-22T04:24:11;10.27;99.00
67275;DHT22;55463;52.324;5.122;2024-03-22T04:26:36;10.34;98.89
67275;DHT22;55463;52.324;5.122;2024-03-22T04:29:02;10.28;98.88
67275;DHT22;55463;52.324;5.122;2024-03-22T04:31:27;10.27;98.84
67275;DHT22;55463;52.324;5.122;2024-03-22T04:33:52;10.24;98.97
67275;DHT22;55463;52.324;5.122;2024-03-22T04:36:18;10.27;98.90
67275;DHT22;55463;52.324;5.122;2024-03-22T04:38:43;10.24;98.90
67275;DHT22;55463;52.324;5.122;2024-03-22T04:41:08;10.19;98.94
67275;DHT22;55463;52.324;5.122;2024-03-22T04:43:34;10.22;98.93
67275;DHT22;55463;52.324;5.122;2024-03-22T04:46:00;10.24;98.80
67275;DHT22;55463;52.324;5.122;2024-03-22T04:48:25;10.22;98.83
67275;DHT22;55463;52.324;5.122;2024-03-22T04:50:51;10.18;98.95
67275;DHT22;55463;52.324;5.122;2024-03-22T04:53:17;10.19;98.94
67275;DHT22;55463;52.324;5.122;2024-03-22T04:55:44;10.18;98.83
67275;DHT22;55463;52.324;5.122;2024-03-22T04:58:28;10.18;98.84
67275;DHT22;55463;52.324;5.122;2024-03-22T05:00:57;10.19;98.79
67275;DHT22;55463;52.324;5.122;2024-03-22T05:03:23;10.18;98.86
67275;DHT22;55463;52.324;5.122;2024-03-22T05:05:49;10.15;98.86
67275;DHT22;55463;52.324;5.122;2024-03-22T05:08:15;10.17;98.82
67275;DHT22;55463;52.324;5.122;2024-03-22T05:10:40;10.15;98.73
67275;DHT22;55463;52.324;5.122;2024-03-22T05:13:07;10.15;98.85
67275;DHT22;55463;52.324;5.122;2024-03-22T05:15:32;10.18;98.84
67275;DHT22;55463;52.324;5.122;2024-03-22T05:17:58;10.14;98.80
67275;DHT22;55463;52.324;5.122;2024-03-22T05:20:24;10.15;98.80
67275;DHT22;55463;52.324;5.122;2024-03-22T05:22:49;10.12;98.81
67275;DHT22;55463;52.324;5.122;2024-03-22T05:25:15;10.12;98.77
67275;DHT22;55463;52.324;5.122;2024-03-22T05:27:41;10.12;98.84
67275;DHT22;55463;52.324;5.122;2024-03-22T05:30:08;10.12;98.78
67275;DHT22;55463;52.324;5.122;2024-03-22T05:32:34;10.10;98.76
67275;DHT22;55463;52.324;5.122;2024-03-22T05:34:59;10.14;98.61
67275;DHT22;55463;52.324;5.122;2024-03-22T05:37:24;10.08;98.76
67275;DHT22;55463;52.324;5.122;2024-03-22T05:39:50;10.14;98.67
67275;DHT22;55463;52.324;5.122;2024-03-22T05:42:15;10.17;98.62
67275;DHT22;55463;52.324;5.122;2024-03-22T05:44:41;10.15;98.55
67275;DHT22;55463;52.324;5.122;2024-03-22T05:47:06;10.18;98.51
67275;DHT22;55463;52.324;5.122;2024-03-22T05:49:32;10.18;98.50
67275;DHT22;55463;52.324;5.122;2024-03-22T05:51:57;10.18;98.47
67275;DHT22;55463;52.324;5.122;2024-03-22T05:54:23;10.17;98.50
67275;DHT22;55463;52.324;5.122;2024-03-22T05:56:48;10.17;98.45
67275;DHT22;55463;52.324;5.122;2024-03-22T05:59:14;10.21;98.28
67275;DHT22;55463;52.324;5.122;2024-03-22T06:01:39;10.22;98.31
67275;DHT22;55463;52.324;5.122;2024-03-22T06:04:05;10.22;98.35
67275;DHT22;55463;52.324;5.122;2024-03-22T06:06:32;10.22;98.33
67275;DHT22;55463;52.324;5.122;2024-03-22T06:08:58;10.21;98.30
67275;DHT22;55463;52.324;5.122;2024-03-22T06:11:25;10.25;98.24
67275;DHT22;55463;52.324;5.122;2024-03-22T06:13:51;10.27;98.27
67275;DHT22;55463;52.324;5.122;2024-03-22T06:16:16;10.27;98.11
67275;DHT22;55463;52.324;5.122;2024-03-22T06:18:41;10.28;98.21
67275;DHT22;55463;52.324;5.122;2024-03-22T06:21:07;10.29;98.08
67275;DHT22;55463;52.324;5.122;2024-03-22T06:23:32;10.31;98.00
67275;DHT22;55463;52.324;5.122;2024-03-22T06:25:58;10.35;98.05
67275;DHT22;55463;52.324;5.122;2024-03-22T06:28:27;10.32;98.00
67275;DHT22;55463;52.324;5.122;2024-03-22T06:30:53;10.35;97.91
67275;DHT22;55463;52.324;5.122;2024-03-22T06:33:19;10.36;97.84
67275;DHT22;55463;52.324;5.122;2024-03-22T06:35:44;10.39;97.86
67275;DHT22;55463;52.324;5.122;2024-03-22T06:38:10;10.38;97.84
67275;DHT22;55463;52.324;5.122;2024-03-22T06:40:35;10.44;97.57
67275;DHT22;55463;52.324;5.122;2024-03-22T06:43:01;10.42;97.63
67275;DHT22;55463;52.324;5.122;2024-03-22T06:45:26;10.45;97.55
67275;DHT22;55463;52.324;5.122;2024-03-22T06:47:52;10.44;97.47
67275;DHT22;55463;52.324;5.122;2024-03-22T06:50:17;10.45;97.44
67275;DHT22;55463;52.324;5.122;2024-03-22T06:52:43;10.44;97.39
67275;DHT22;55463;52.324;5.122;2024-03-22T06:55:09;10.46;97.38
67275;DHT22;55463;52.324;5.122;2024-03-22T06:57:34;10.48;97.43
67275;DHT22;55463;52.324;5.122;2024-03-22T07:00:00;10.48;97.30
67275;DHT22;55463;52.324;5.122;2024-03-22T07:02:26;10.50;97.29
67275;DHT22;55463;52.324;5.122;2024-03-22T07:04:51;10.52;97.18
67275;DHT22;55463;52.324;5.122;2024-03-22T07:07:17;10.52;97.27
67275;DHT22;55463;52.324;5.122;2024-03-22T07:09:43;10.52;97.10
67275;DHT22;55463;52.324;5.122;2024-03-22T07:12:08;10.55;97.17
67275;DHT22;55463;52.324;5.122;2024-03-22T07:14:34;10.56;97.23
67275;DHT22;55463;52.324;5.122;2024-03-22T07:16:59;10.53;97.33
67275;DHT22;55463;52.324;5.122;2024-03-22T07:19:24;10.53;97.33
67275;DHT22;55463;52.324;5.122;2024-03-22T07:21:50;10.59;97.32
67275;DHT22;55463;52.324;5.122;2024-03-22T07:24:15;10.53;97.32
67275;DHT22;55463;52.324;5.122;2024-03-22T07:26:43;10.56;97.24
67275;DHT22;55463;52.324;5.122;2024-03-22T07:29:08;10.52;97.09
67275;DHT22;55463;52.324;5.122;2024-03-22T07:31:33;10.53;97.18
67275;DHT22;55463;52.324;5.122;2024-03-22T07:33:59;10.50;97.34
67275;DHT22;55463;52.324;5.122;2024-03-22T07:36:24;10.52;97.47
67275;DHT22;55463;52.324;5.122;2024-03-22T07:38:52;10.48;97.56
67275;DHT22;55463;52.324;5.122;2024-03-22T07:41:17;10.49;97.62
67275;DHT22;55463;52.324;5.122;2024-03-22T07:43:42;10.49;97.65
67275;DHT22;55463;52.324;5.122;2024-03-22T07:46:08;10.45;97.95
67275;DHT22;55463;52.324;5.122;2024-03-22T07:48:34;10.45;97.82
67275;DHT22;55463;52.324;5.122;2024-03-22T07:51:00;10.42;97.88
67275;DHT22;55463;52.324;5.122;2024-03-22T07:53:26;10.42;97.95
67275;DHT22;55463;52.324;5.122;2024-03-22T07:55:52;10.41;98.12
67275;DHT22;55463;52.324;5.122;2024-03-22T07:58:17;10.38;98.17
67275;DHT22;55463;52.324;5.122;2024-03-22T08:00:43;10.35;98.51
67275;DHT22;55463;52.324;5.122;2024-03-22T08:03:14;10.35;98.64
67275;DHT22;55463;52.324;5.122;2024-03-22T08:05:39;10.38;98.62
67275;DHT22;55463;52.324;5.122;2024-03-22T08:08:05;10.34;98.87
67275;DHT22;55463;52.324;5.122;2024-03-22T08:10:30;10.32;98.89
67275;DHT22;55463;52.324;5.122;2024-03-22T08:12:56;10.31;99.01
67275;DHT22;55463;52.324;5.122;2024-03-22T08:15:21;10.32;98.93
67275;DHT22;55463;52.324;5.122;2024-03-22T08:17:47;10.36;98.93
67275;DHT22;55463;52.324;5.122;2024-03-22T08:20:12;10.32;99.22
67275;DHT22;55463;52.324;5.122;2024-03-22T08:22:37;10.35;99.31
67275;DHT22;55463;52.324;5.122;2024-03-22T08:25:03;10.29;99.69
67275;DHT22;55463;52.324;5.122;2024-03-22T08:27:29;10.29;99.85
67275;DHT22;55463;52.324;5.122;2024-03-22T08:29:55;10.31;99.93
67275;DHT22;55463;52.324;5.122;2024-03-22T08:32:20;10.28;99.99
67275;DHT22;55463;52.324;5.122;2024-03-22T08:34:46;10.29;99.99
67275;DHT22;55463;52.324;5.122;2024-03-22T08:37:11;10.25;99.99
67275;DHT22;55463;52.324;5.122;2024-03-22T08:39:36;10.28;99.99
67275;DHT22;55463;52.324;5.122;2024-03-22T08:42:02;10.31;99.99
67275;DHT22;55463;52.324;5.122;2024-03-22T08:44:30;10.31;99.99
67275;DHT22;55463;52.324;5.122;2024-03-22T08:46:55;10.31;99.99
67275;DHT22;55463;52.324;5.122;2024-03-22T08:49:21;10.32;99.99
67275;DHT22;55463;52.324;5.122;2024-03-22T08:51:46;10.31;99.99
67275;DHT22;55463;52.324;5.122;2024-03-22T08:54:13;10.28;99.99
67275;DHT22;55463;52.324;5.122;2024-03-22T08:56:38;10.25;99.99
67275;DHT22;55463;52.324;5.122;2024-03-22T08:59:04;10.27;99.99
67275;DHT22;55463;52.324;5.122;2024-03-22T09:01:29;10.25;99.99
67275;DHT22;55463;52.324;5.122;2024-03-22T09:03:55;10.28;99.99
67275;DHT22;55463;52.324;5.122;2024-03-22T09:06:20;10.27;99.99
67275;DHT22;55463;52.324;5.122;2024-03-22T09:08:46;10.24;99.99
67275;DHT22;55463;52.324;5.122;2024-03-22T09:11:12;10.24;99.99
67275;DHT22;55463;52.324;5.122;2024-03-22T09:13:38;10.27;99.99
67275;DHT22;55463;52.324;5.122;2024-03-22T09:16:03;10.25;99.99
67275;DHT22;55463;52.324;5.122;2024-03-22T09:18:29;10.24;99.99
67275;DHT22;55463;52.324;5.122;2024-03-22T09:20:54;10.27;99.99
67275;DHT22;55463;52.324;5.122;2024-03-22T09:23:21;10.27;99.99
67275;DHT22;55463;52.324;5.122;2024-03-22T09:25:46;10.28;99.99
67275;DHT22;55463;52.324;5.122;2024-03-22T09:28:13;10.29;99.99
67275;DHT22;55463;52.324;5.122;2024-03-22T09:30:39;10.27;99.99
67275;DHT22;55463;52.324;5.122;2024-03-22T09:33:05;10.28;99.99
67275;DHT22;55463;52.324;5.122;2024-03-22T09:35:33;10.32;99.99
67275;DHT22;55463;52.324;5.122;2024-03-22T09:37:59;10.36;99.99
67275;DHT22;55463;52.324;5.122;2024-03-22T09:40:24;10.36;99.99
67275;DHT22;55463;52.324;5.122;2024-03-22T09:42:52;10.41;99.99
67275;DHT22;55463;52.324;5.122;2024-03-22T09:45:18;10.41;99.99
67275;DHT22;55463;52.324;5.122;2024-03-22T09:47:45;10.42;99.99
67275;DHT22;55463;52.324;5.122;2024-03-22T09:50:13;10.42;99.99
67275;DHT22;55463;52.324;5.122;2024-03-22T09:52:41;10.38;99.99
67275;DHT22;55463;52.324;5.122;2024-03-22T09:55:08;10.42;99.99
67275;DHT22;55463;52.324;5.122;2024-03-22T09:57:43;10.44;99.99
67275;DHT22;55463;52.324;5.122;2024-03-22T10:00:10;10.49;99.99
67275;DHT22;55463;52.324;5.122;2024-03-22T10:02:39;10.48;99.99
67275;DHT22;55463;52.324;5.122;2024-03-22T10:05:05;10.55;99.99
67275;DHT22;55463;52.324;5.122;2024-03-22T10:07:32;10.56;99.99
67275;DHT22;55463;52.324;5.122;2024-03-22T10:09:58;10.53;99.99
67275;DHT22;55463;52.324;5.122;2024-03-22T10:12:24;10.56;99.99
67275;DHT22;55463;52.324;5.122;2024-03-22T10:14:52;10.55;99.99
67275;DHT22;55463;52.324;5.122;2024-03-22T10:17:18;10.60;99.99
67275;DHT22;55463;52.324;5.122;2024-03-22T10:19:43;10.62;99.99
67275;DHT22;55463;52.324;5.122;2024-03-22T10:22:08;10.63;99.99
67275;DHT22;55463;52.324;5.122;2024-03-22T10:24:34;10.64;99.99
67275;DHT22;55463;52.324;5.122;2024-03-22T10:27:00;10.67;99.99
67275;DHT22;55463;52.324;5.122;2024-03-22T10:29:25;10.66;99.99
67275;DHT22;55463;52.324;5.122;2024-03-22T10:31:55;10.72;99.99
67275;DHT22;55463;52.324;5.122;2024-03-22T10:34:22;10.70;99.99
67275;DHT22;55463;52.324;5.122;2024-03-22T10:36:49;10.69;99.99
67275;DHT22;55463;52.324;5.122;2024-03-22T10:39:17;10.70;99.99
67275;DHT22;55463;52.324;5.122;2024-03-22T10:41:45;10.64;99.99
67275;DHT22;55463;52.324;5.122;2024-03-22T10:44:11;10.70;99.99
67275;DHT22;55463;52.324;5.122;2024-03-22T10:46:38;10.70;99.99
67275;DHT22;55463;52.324;5.122;2024-03-22T10:49:06;10.67;99.99
67275;DHT22;55463;52.324;5.122;2024-03-22T10:51:33;10.67;99.99
67275;DHT22;55463;52.324;5.122;2024-03-22T10:54:00;10.66;99.99
67275;DHT22;55463;52.324;5.122;2024-03-22T10:56:28;10.67;99.99
67275;DHT22;55463;52.324;5.122;2024-03-22T10:58:54;10.70;99.99
67275;DHT22;55463;52.324;5.122;2024-03-22T11:01:27;10.69;99.99
67275;DHT22;55463;52.324;5.122;2024-03-22T11:04:06;10.74;99.99
67275;DHT22;55463;52.324;5.122;2024-03-22T11:06:38;10.80;99.99
67275;DHT22;55463;52.324;5.122;2024-03-22T11:09:04;10.79;99.99
67275;DHT22;55463;52.324;5.122;2024-03-22T11:11:30;10.85;99.99
67275;DHT22;55463;52.324;5.122;2024-03-22T11:13:56;10.84;99.99
67275;DHT22;55463;52.324;5.122;2024-03-22T11:16:22;10.90;99.99
67275;DHT22;55463;52.324;5.122;2024-03-22T11:18:47;10.91;99.99
67275;DHT22;55463;52.324;5.122;2024-03-22T11:21:14;10.91;99.99
67275;DHT22;55463;52.324;5.122;2024-03-22T11:23:40;10.89;99.99
67275;DHT22;55463;52.324;5.122;2024-03-22T11:26:05;10.87;99.99
67275;DHT22;55463;52.324;5.122;2024-03-22T11:28:33;10.90;99.99
67275;DHT22;55463;52.324;5.122;2024-03-22T11:30:59;10.89;99.99
67275;DHT22;55463;52.324;5.122;2024-03-22T11:33:24;10.91;99.99
67275;DHT22;55463;52.324;5.122;2024-03-22T11:35:52;10.94;99.99
67275;DHT22;55463;52.324;5.122;2024-03-22T11:38:17;10.97;99.99
67275;DHT22;55463;52.324;5.122;2024-03-22T11:40:44;10.97;99.99
67275;DHT22;55463;52.324;5.122;2024-03-22T11:43:11;11.00;99.99
67275;DHT22;55463;52.324;5.122;2024-03-22T11:45:36;11.01;99.99
67275;DHT22;55463;52.324;5.122;2024-03-22T11:48:03;10.99;99.99
67275;DHT22;55463;52.324;5.122;2024-03-22T11:50:28;10.94;99.99
67275;DHT22;55463;52.324;5.122;2024-03-22T11:52:54;10.97;99.99
67275;DHT22;55463;52.324;5.122;2024-03-22T11:55:19;10.99;99.99
67275;DHT22;55463;52.324;5.122;2024-03-22T11:57:51;10.99;99.99
67275;DHT22;55463;52.324;5.122;2024-03-22T12:00:18;10.97;99.76
67275;DHT22;55463;52.324;5.122;2024-03-22T12:02:44;10.96;99.97
67275;DHT22;55463;52.324;5.122;2024-03-22T12:05:10;10.96;99.99
67275;DHT22;55463;52.324;5.122;2024-03-22T12:07:36;11.06;99.99
67275;DHT22;55463;52.324;5.122;2024-03-22T12:10:02;11.08;99.99
67275;DHT22;55463;52.324;5.122;2024-03-22T12:12:28;11.18;99.99
67275;DHT22;55463;52.324;5.122;2024-03-22T12:14:54;11.27;99.99
67275;DHT22;55463;52.324;5.122;2024-03-22T12:17:20;11.28;99.99
67275;DHT22;55463;52.324;5.122;2024-03-22T12:19:45;11.32;99.60
67275;DHT22;55463;52.324;5.122;2024-03-22T12:22:10;11.35;99.41
67275;DHT22;55463;52.324;5.122;2024-03-22T12:24:36;11.38;99.42
67275;DHT22;55463;52.324;5.122;2024-03-22T12:27:02;11.42;99.34
67275;DHT22;55463;52.324;5.122;2024-03-22T12:29:27;11.43;99.60
67275;DHT22;55463;52.324;5.122;2024-03-22T12:31:53;11.40;98.70
67275;DHT22;55463;52.324;5.122;2024-03-22T12:34:18;11.36;98.98
67275;DHT22;55463;52.324;5.122;2024-03-22T12:36:44;11.36;99.24
67275;DHT22;55463;52.324;5.122;2024-03-22T12:39:09;11.42;99.26
67275;DHT22;55463;52.324;5.122;2024-03-22T12:41:35;11.42;98.97
67275;DHT22;55463;52.324;5.122;2024-03-22T12:44:01;11.47;99.15
67275;DHT22;55463;52.324;5.122;2024-03-22T12:46:27;11.46;99.03
67275;DHT22;55463;52.324;5.122;2024-03-22T12:48:53;11.47;98.91
67275;DHT22;55463;52.324;5.122;2024-03-22T12:51:18;11.53;99.38
67275;DHT22;55463;52.324;5.122;2024-03-22T12:53:44;11.53;98.84
67275;DHT22;55463;52.324;5.122;2024-03-22T12:56:09;11.47;98.17
67275;DHT22;55463;52.324;5.122;2024-03-22T12:58:36;11.43;98.24
67275;DHT22;55463;52.324;5.122;2024-03-22T13:01:01;11.45;98.26
67275;DHT22;55463;52.324;5.122;2024-03-22T13:03:28;11.52;98.57
67275;DHT22;55463;52.324;5.122;2024-03-22T13:05:53;11.56;98.70
67275;DHT22;55463;52.324;5.122;2024-03-22T13:08:22;11.61;98.81
67275;DHT22;55463;52.324;5.122;2024-03-22T13:10:48;11.61;98.41
67275;DHT22;55463;52.324;5.122;2024-03-22T13:13:13;11.61;98.19
67275;DHT22;55463;52.324;5.122;2024-03-22T13:15:41;11.65;98.27
67275;DHT22;55463;52.324;5.122;2024-03-22T13:18:07;11.65;97.76
67275;DHT22;55463;52.324;5.122;2024-03-22T13:20:34;11.53;97.21
67275;DHT22;55463;52.324;5.122;2024-03-22T13:22:59;11.49;97.14
67275;DHT22;55463;52.324;5.122;2024-03-22T13:25:26;11.46;97.04
67275;DHT22;55463;52.324;5.122;2024-03-22T13:27:51;11.45;97.18
67275;DHT22;55463;52.324;5.122;2024-03-22T13:30:17;11.43;97.00
67275;DHT22;55463;52.324;5.122;2024-03-22T13:32:42;11.40;96.49
67275;DHT22;55463;52.324;5.122;2024-03-22T13:35:07;11.43;97.59
67275;DHT22;55463;52.324;5.122;2024-03-22T13:37:33;11.49;97.70
67275;DHT22;55463;52.324;5.122;2024-03-22T13:39:59;11.42;96.79
67275;DHT22;55463;52.324;5.122;2024-03-22T13:42:26;11.39;96.97
67275;DHT22;55463;52.324;5.122;2024-03-22T13:44:51;11.39;96.53
67275;DHT22;55463;52.324;5.122;2024-03-22T13:47:17;11.39;96.93
67275;DHT22;55463;52.324;5.122;2024-03-22T13:49:43;11.38;96.62
67275;DHT22;55463;52.324;5.122;2024-03-22T13:52:08;11.28;96.31
67275;DHT22;55463;52.324;5.122;2024-03-22T13:54:34;11.31;96.56
67275;DHT22;55463;52.324;5.122;2024-03-22T13:57:00;11.38;97.13
67275;DHT22;55463;52.324;5.122;2024-03-22T13:59:26;11.43;96.92
67275;DHT22;55463;52.324;5.122;2024-03-22T14:01:51;11.52;97.32
67275;DHT22;55463;52.324;5.122;2024-03-22T14:04:18;11.47;96.32
67275;DHT22;55463;52.324;5.122;2024-03-22T14:06:45;11.52;97.08
67275;DHT22;55463;52.324;5.122;2024-03-22T14:09:11;11.52;96.98
67275;DHT22;55463;52.324;5.122;2024-03-22T14:11:41;11.53;96.96
67275;DHT22;55463;52.324;5.122;2024-03-22T14:14:09;11.51;96.55
67275;DHT22;55463;52.324;5.122;2024-03-22T14:16:37;11.55;97.15
67275;DHT22;55463;52.324;5.122;2024-03-22T14:19:02;11.53;96.82
67275;DHT22;55463;52.324;5.122;2024-03-22T14:21:28;11.49;96.35
67275;DHT22;55463;52.324;5.122;2024-03-22T14:23:54;11.47;96.53
67275;DHT22;55463;52.324;5.122;2024-03-22T14:26:20;11.46;96.45
67275;DHT22;55463;52.324;5.122;2024-03-22T14:28:46;11.42;96.33
67275;DHT22;55463;52.324;5.122;2024-03-22T14:31:12;11.43;96.72
67275;DHT22;55463;52.324;5.122;2024-03-22T14:33:39;11.46;96.21
67275;DHT22;55463;52.324;5.122;2024-03-22T14:36:05;11.42;96.40
67275;DHT22;55463;52.324;5.122;2024-03-22T14:38:33;11.38;96.13
67275;DHT22;55463;52.324;5.122;2024-03-22T14:40:59;11.34;95.97
67275;DHT22;55463;52.324;5.122;2024-03-22T14:43:25;11.31;95.87
67275;DHT22;55463;52.324;5.122;2024-03-22T14:45:52;11.29;96.08
67275;DHT22;55463;52.324;5.122;2024-03-22T14:48:19;11.18;95.75
67275;DHT22;55463;52.324;5.122;2024-03-22T14:50:46;11.14;95.58
67275;DHT22;55463;52.324;5.122;2024-03-22T14:53:11;11.11;95.96
67275;DHT22;55463;52.324;5.122;2024-03-22T14:55:37;11.10;96.07
67275;DHT22;55463;52.324;5.122;2024-03-22T14:58:03;11.04;95.37
67275;DHT22;55463;52.324;5.122;2024-03-22T15:00:29;11.04;96.02
67275;DHT22;55463;52.324;5.122;2024-03-22T15:02:54;11.01;95.95
67275;DHT22;55463;52.324;5.122;2024-03-22T15:05:20;11.01;96.24
67275;DHT22;55463;52.324;5.122;2024-03-22T15:07:45;11.04;95.93
67275;DHT22;55463;52.324;5.122;2024-03-22T15:10:10;10.99;95.86
67275;DHT22;55463;52.324;5.122;2024-03-22T15:12:36;10.97;96.28
67275;DHT22;55463;52.324;5.122;2024-03-22T15:15:02;10.90;94.81
67275;DHT22;55463;52.324;5.122;2024-03-22T15:17:29;10.81;94.63
67275;DHT22;55463;52.324;5.122;2024-03-22T15:19:55;10.80;94.39
67275;DHT22;55463;52.324;5.122;2024-03-22T15:22:20;10.72;93.94
67275;DHT22;55463;52.324;5.122;2024-03-22T15:24:48;10.70;94.40
67275;DHT22;55463;52.324;5.122;2024-03-22T15:27:14;10.66;94.80
67275;DHT22;55463;52.324;5.122;2024-03-22T15:29:39;10.63;94.07
67275;DHT22;55463;52.324;5.122;2024-03-22T15:32:05;10.63;94.89